createdAt,value
2018-09-30T00:00:37.961Z,8.25
2018-09-30T00:03:06.117Z,8.20
2018-09-30T00:05:34.354Z,8.28
2018-09-30T00:08:02.499Z,8.20
2018-09-30T00:10:30.880Z,8.17
2018-09-30T00:12:59.105Z,7.92
2018-09-30T00:15:27.308Z,7.90
2018-09-30T00:17:55.479Z,7.94
2018-09-30T00:20:23.637Z,7.95
2018-09-30T00:22:51.813Z,8.01
2018-09-30T00:25:25.259Z,8.00
2018-09-30T00:27:53.426Z,7.92
2018-09-30T00:30:21.618Z,7.90
2018-09-30T00:32:49.809Z,7.83
2018-09-30T00:35:18.120Z,7.56
2018-09-30T00:37:46.297Z,7.76
2018-09-30T00:40:14.601Z,7.69
2018-09-30T00:42:42.830Z,7.78
2018-09-30T00:45:11.097Z,7.71
2018-09-30T00:47:39.352Z,7.79
2018-09-30T00:50:07.563Z,7.66
2018-09-30T00:52:35.801Z,7.62
2018-09-30T00:55:04.136Z,7.60
2018-09-30T00:57:32.298Z,7.71
2018-09-30T01:00:01.099Z,7.67
2018-09-30T01:02:29.236Z,7.69
2018-09-30T01:04:57.325Z,7.69
2018-09-30T01:07:25.506Z,7.57
2018-09-30T01:09:53.938Z,7.67
2018-09-30T01:12:22.125Z,7.68
2018-09-30T01:14:50.338Z,7.78
2018-09-30T01:17:18.542Z,7.70
2018-09-30T01:19:46.852Z,7.56
2018-09-30T01:22:15.049Z,7.59
2018-09-30T01:24:43.287Z,7.53
2018-09-30T01:27:11.556Z,7.43
2018-09-30T01:29:39.751Z,7.63
2018-09-30T01:32:07.900Z,7.67
2018-09-30T01:34:36.142Z,7.56
2018-09-30T01:37:04.345Z,7.38
2018-09-30T01:39:32.672Z,7.50
2018-09-30T01:42:00.998Z,7.46
2018-09-30T01:44:29.160Z,7.48
2018-09-30T01:46:57.350Z,7.48
2018-09-30T01:49:25.664Z,7.47
2018-09-30T01:52:05.128Z,7.47
2018-09-30T01:54:33.243Z,7.27
2018-09-30T01:57:01.420Z,7.36
2018-09-30T01:59:29.594Z,7.37
2018-09-30T02:01:57.768Z,7.35
2018-09-30T02:04:25.887Z,7.38
2018-09-30T02:06:54.207Z,7.41
2018-09-30T02:09:22.392Z,7.28
2018-09-30T02:11:50.662Z,7.13
2018-09-30T02:14:18.953Z,7.11
2018-09-30T02:16:47.141Z,7.05
2018-09-30T02:19:15.350Z,7.00
2018-09-30T02:21:43.527Z,6.69
2018-09-30T02:24:11.738Z,6.68
2018-09-30T02:26:39.911Z,6.82
2018-09-30T02:29:08.113Z,6.77
2018-09-30T02:31:36.271Z,6.66
2018-09-30T02:34:04.361Z,6.64
2018-09-30T02:36:32.517Z,6.70
2018-09-30T02:39:00.797Z,6.71
2018-09-30T02:41:28.963Z,6.63
2018-09-30T02:43:57.180Z,6.57
2018-09-30T02:46:25.361Z,6.60
2018-09-30T02:48:53.489Z,6.17
2018-09-30T02:51:21.678Z,5.99
2018-09-30T02:53:49.874Z,5.99
2018-09-30T02:56:18.047Z,5.98
2018-09-30T02:58:46.284Z,5.91
2018-09-30T03:01:14.508Z,5.88
2018-09-30T03:03:42.651Z,5.70
2018-09-30T03:06:16.085Z,5.87
2018-09-30T03:08:49.741Z,6.09
2018-09-30T03:11:17.901Z,6.06
2018-09-30T03:13:46.018Z,6.19
2018-09-30T03:16:14.294Z,6.26
2018-09-30T03:18:42.504Z,6.29
2018-09-30T03:21:10.748Z,6.31
2018-09-30T03:23:39.042Z,6.34
2018-09-30T03:26:07.366Z,6.48
2018-09-30T03:28:35.613Z,6.41
2018-09-30T03:31:03.914Z,6.24
2018-09-30T03:33:32.177Z,6.26
2018-09-30T03:36:00.626Z,6.38
2018-09-30T03:38:28.915Z,6.09
2018-09-30T03:40:57.122Z,6.29
2018-09-30T03:43:25.300Z,6.36
2018-09-30T03:45:53.413Z,6.39
2018-09-30T03:48:21.574Z,6.45
2018-09-30T03:50:49.666Z,6.41
2018-09-30T03:53:17.816Z,6.35
2018-09-30T03:55:45.968Z,6.42
2018-09-30T03:58:14.129Z,6.56
2018-09-30T04:00:42.233Z,6.54
2018-09-30T04:03:10.613Z,6.37
2018-09-30T04:05:38.760Z,6.33
2018-09-30T04:08:06.991Z,6.40
2018-09-30T04:10:35.283Z,6.33
2018-09-30T04:13:03.448Z,6.35
2018-09-30T04:15:31.631Z,6.40
2018-09-30T04:17:59.859Z,6.31
2018-09-30T04:20:28.138Z,6.26
2018-09-30T04:22:56.310Z,6.34
2018-09-30T04:25:25.338Z,6.30
2018-09-30T04:27:56.796Z,6.23
2018-09-30T04:30:25.044Z,6.23
2018-09-30T04:32:53.893Z,6.35
2018-09-30T04:35:22.540Z,6.07
2018-09-30T04:37:50.844Z,6.24
2018-09-30T04:40:19.135Z,6.22
2018-09-30T04:42:47.300Z,6.17
2018-09-30T04:45:15.514Z,6.11
2018-09-30T04:47:43.767Z,6.00
2018-09-30T04:50:12.013Z,5.94
2018-09-30T04:52:43.240Z,5.90
2018-09-30T04:55:11.408Z,5.64
2018-09-30T04:57:39.531Z,5.84
2018-09-30T05:00:07.729Z,5.90
2018-09-30T05:02:35.993Z,5.95
2018-09-30T05:05:04.279Z,5.85
2018-09-30T05:07:32.429Z,5.87
2018-09-30T05:10:00.557Z,6.02
2018-09-30T05:12:28.730Z,5.97
2018-09-30T05:14:57.354Z,5.99
2018-09-30T05:17:25.494Z,6.01
2018-09-30T05:19:53.955Z,6.11
2018-09-30T05:22:22.131Z,6.07
2018-09-30T05:24:50.291Z,6.07
2018-09-30T05:27:18.408Z,6.02
2018-09-30T05:29:46.533Z,5.91
2018-09-30T05:32:14.714Z,5.83
2018-09-30T05:34:43.296Z,6.02
2018-09-30T05:37:11.624Z,6.07
2018-09-30T05:39:39.756Z,6.17
2018-09-30T05:42:08.069Z,6.00
2018-09-30T05:44:36.212Z,6.11
2018-09-30T05:47:04.383Z,6.09
2018-09-30T05:49:33.478Z,6.16
2018-09-30T05:52:01.618Z,6.19
2018-09-30T05:54:29.714Z,6.28
2018-09-30T05:56:57.991Z,6.35
2018-09-30T05:59:26.161Z,6.33
2018-09-30T06:01:54.428Z,6.36
2018-09-30T06:04:22.589Z,6.63
2018-09-30T06:06:50.699Z,6.58
2018-09-30T06:09:18.841Z,6.74
2018-09-30T06:11:47.657Z,6.83
2018-09-30T06:14:16.498Z,6.91
2018-09-30T06:16:44.696Z,7.04
2018-09-30T06:19:12.917Z,7.15
2018-09-30T06:21:41.500Z,7.20
2018-09-30T06:24:10.702Z,7.16
2018-09-30T06:26:38.958Z,7.07
2018-09-30T06:29:07.208Z,7.14
2018-09-30T06:31:35.482Z,7.28
2018-09-30T06:34:03.634Z,7.31
2018-09-30T06:36:31.951Z,7.41
2018-09-30T06:39:00.150Z,7.60
2018-09-30T06:41:28.396Z,7.66
2018-09-30T06:43:56.625Z,7.67
2018-09-30T06:46:24.822Z,7.75
2018-09-30T06:48:52.930Z,7.84
2018-09-30T06:51:21.200Z,7.91
2018-09-30T06:53:49.343Z,7.99
2018-09-30T06:56:17.524Z,8.09
2018-09-30T06:58:45.687Z,8.15
2018-09-30T07:01:13.841Z,8.23
2018-09-30T07:03:42.072Z,8.34
2018-09-30T07:06:10.367Z,8.38
2018-09-30T07:08:38.594Z,8.55
2018-09-30T07:11:06.776Z,8.59
2018-09-30T07:13:34.969Z,8.62
2018-09-30T07:16:03.181Z,8.70
2018-09-30T07:18:31.324Z,8.75
2018-09-30T07:20:59.495Z,8.85
2018-09-30T07:23:27.633Z,8.91
2018-09-30T07:25:55.789Z,8.96
2018-09-30T07:28:23.911Z,9.03
2018-09-30T07:30:52.130Z,9.22
2018-09-30T07:33:20.275Z,9.27
2018-09-30T07:35:48.445Z,9.36
2018-09-30T07:38:16.631Z,9.42
2018-09-30T07:40:44.812Z,9.43
2018-09-30T07:43:13.007Z,9.51
2018-09-30T07:45:41.319Z,9.63
2018-09-30T07:48:09.523Z,9.60
2018-09-30T07:50:37.916Z,9.57
2018-09-30T07:53:06.198Z,9.76
2018-09-30T07:55:34.366Z,9.67
2018-09-30T07:58:02.581Z,9.78
2018-09-30T08:00:30.809Z,9.84
2018-09-30T08:02:59.195Z,9.81
2018-09-30T08:05:27.455Z,9.85
2018-09-30T08:07:55.798Z,9.90
2018-09-30T08:10:24.416Z,10.00
2018-09-30T08:12:53.168Z,10.11
2018-09-30T08:15:21.342Z,10.24
2018-09-30T08:17:49.560Z,10.30
2018-09-30T08:20:17.681Z,10.45
2018-09-30T08:22:45.958Z,10.48
2018-09-30T08:25:14.140Z,10.58
2018-09-30T08:27:42.457Z,10.56
2018-09-30T08:30:10.698Z,10.57
2018-09-30T08:32:38.888Z,10.60
2018-09-30T08:35:07.139Z,10.76
2018-09-30T08:37:40.846Z,10.88
2018-09-30T08:40:09.298Z,10.97
2018-09-30T08:45:11.983Z,11.17
2018-09-30T08:47:40.489Z,11.28
2018-09-30T08:50:08.643Z,11.29
2018-09-30T08:52:36.828Z,11.30
2018-09-30T08:55:05.131Z,11.30
2018-09-30T08:57:33.263Z,11.46
2018-09-30T09:00:01.511Z,11.53
2018-09-30T09:02:29.798Z,11.65
2018-09-30T09:04:58.027Z,11.71
2018-09-30T09:07:26.247Z,11.77
2018-09-30T09:09:54.625Z,12.10
2018-09-30T09:12:22.810Z,12.13
2018-09-30T09:14:51.293Z,12.14
2018-09-30T09:17:19.554Z,12.14
2018-09-30T09:19:47.966Z,12.29
2018-09-30T09:22:16.251Z,12.36
2018-09-30T09:24:44.453Z,12.45
2018-09-30T09:27:12.729Z,12.50
2018-09-30T09:29:40.926Z,12.53
2018-09-30T09:32:13.640Z,12.63
2018-09-30T09:34:41.890Z,12.67
2018-09-30T09:37:10.415Z,12.80
2018-09-30T09:39:38.584Z,12.94
2018-09-30T09:42:07.612Z,12.99
2018-09-30T09:44:35.845Z,13.15
2018-09-30T09:47:04.257Z,13.19
2018-09-30T09:49:32.514Z,13.26
2018-09-30T09:52:00.832Z,13.34
2018-09-30T09:54:29.012Z,13.35
2018-09-30T09:56:57.378Z,13.39
2018-09-30T09:59:30.061Z,13.45
2018-09-30T10:01:58.185Z,13.71
2018-09-30T10:04:26.407Z,13.70
2018-09-30T10:06:54.963Z,13.74
2018-09-30T10:09:23.298Z,13.72
2018-09-30T10:11:51.557Z,13.77
2018-09-30T10:14:20.095Z,13.74
2018-09-30T10:16:48.944Z,13.86
2018-09-30T10:19:17.234Z,14.09
2018-09-30T10:21:45.418Z,14.09
2018-09-30T10:24:13.761Z,14.14
2018-09-30T10:26:42.021Z,14.20
2018-09-30T10:29:10.261Z,14.26
2018-09-30T10:31:38.422Z,14.36
2018-09-30T10:34:08.068Z,14.49
2018-09-30T10:36:36.242Z,14.46
2018-09-30T10:39:06.422Z,14.51
2018-09-30T10:41:35.359Z,14.53
2018-09-30T10:44:03.650Z,14.95
2018-09-30T10:46:32.864Z,15.02
2018-09-30T10:49:01.041Z,15.02
2018-09-30T10:51:29.166Z,15.04
2018-09-30T10:53:57.430Z,15.04
2018-09-30T10:56:25.658Z,14.99
2018-09-30T10:58:53.912Z,15.12
2018-09-30T11:01:22.137Z,15.18
2018-09-30T11:03:50.461Z,15.36
2018-09-30T11:06:18.855Z,15.39
2018-09-30T11:08:47.050Z,15.33
2018-09-30T11:11:15.711Z,15.28
2018-09-30T11:13:43.940Z,15.44
2018-09-30T11:16:12.217Z,15.54
2018-09-30T11:18:40.429Z,15.55
2018-09-30T11:21:08.829Z,15.52
2018-09-30T11:23:37.023Z,15.57
2018-09-30T11:26:05.569Z,15.67
2018-09-30T11:28:33.808Z,15.64
2018-09-30T11:31:02.116Z,15.67
2018-09-30T11:33:30.684Z,15.88
2018-09-30T11:35:58.877Z,15.84
2018-09-30T11:38:27.288Z,15.86
2018-09-30T11:40:55.474Z,15.87
2018-09-30T11:43:24.038Z,15.86
2018-09-30T11:45:52.289Z,15.97
2018-09-30T11:48:20.719Z,16.00
2018-09-30T11:50:48.962Z,16.11
2018-09-30T11:53:17.151Z,16.07
2018-09-30T11:55:45.333Z,16.04
2018-09-30T11:58:13.565Z,16.01
2018-09-30T12:00:41.932Z,15.99
2018-09-30T12:03:10.116Z,16.01
2018-09-30T12:05:38.317Z,15.96
2018-09-30T12:08:06.501Z,15.99
2018-09-30T12:10:34.766Z,15.99
2018-09-30T12:13:03.067Z,16.15
2018-09-30T12:15:31.345Z,16.09
2018-09-30T12:17:59.618Z,16.05
2018-09-30T12:20:27.911Z,15.95
2018-09-30T12:22:56.144Z,15.96
2018-09-30T12:25:24.531Z,15.96
2018-09-30T12:27:52.797Z,15.96
2018-09-30T12:30:21.178Z,15.96
2018-09-30T12:32:49.645Z,15.97
2018-09-30T12:35:17.848Z,15.92
2018-09-30T12:37:46.039Z,15.91
2018-09-30T12:40:14.183Z,15.91
2018-09-30T12:42:42.363Z,15.96
2018-09-30T12:45:10.583Z,16.08
2018-09-30T12:47:38.717Z,16.41
2018-09-30T12:50:07.005Z,16.54
2018-09-30T12:52:35.291Z,16.61
2018-09-30T12:55:03.454Z,16.62
2018-09-30T12:57:31.697Z,16.55
2018-09-30T12:59:59.901Z,16.51
2018-09-30T13:02:28.185Z,16.52
2018-09-30T13:04:56.421Z,16.51
2018-09-30T13:07:24.980Z,16.46
2018-09-30T13:09:53.328Z,16.53
2018-09-30T13:12:21.487Z,16.58
2018-09-30T13:14:49.943Z,16.57
2018-09-30T13:17:18.150Z,16.54
2018-09-30T13:19:46.389Z,16.61
2018-09-30T13:22:14.661Z,16.54
2018-09-30T13:24:42.798Z,16.56
2018-09-30T13:27:11.769Z,16.60
2018-09-30T13:29:40.248Z,16.63
2018-09-30T13:32:08.467Z,16.71
2018-09-30T13:34:36.591Z,16.67
2018-09-30T13:37:04.870Z,16.66
2018-09-30T13:39:33.041Z,16.63
2018-09-30T13:42:01.228Z,16.72
2018-09-30T13:44:29.387Z,16.64
2018-09-30T13:46:57.570Z,16.61
2018-09-30T13:49:26.657Z,16.68
2018-09-30T13:51:54.838Z,16.70
2018-09-30T13:54:23.139Z,16.73
2018-09-30T13:56:52.325Z,16.77
2018-09-30T13:59:20.580Z,16.88
2018-09-30T14:01:48.831Z,16.74
2018-09-30T14:04:17.170Z,16.75
2018-09-30T14:06:50.997Z,16.65
2018-09-30T14:09:19.149Z,16.56
2018-09-30T14:11:47.287Z,16.47
2018-09-30T14:14:15.432Z,16.44
2018-09-30T14:16:43.527Z,16.54
2018-09-30T14:19:11.708Z,16.57
2018-09-30T14:21:39.893Z,16.45
2018-09-30T14:24:08.127Z,16.49
2018-09-30T14:26:36.735Z,16.45
2018-09-30T14:29:05.104Z,16.43
2018-09-30T14:31:33.258Z,16.37
2018-09-30T14:34:01.492Z,16.63
2018-09-30T14:36:30.289Z,16.57
2018-09-30T14:38:58.509Z,16.43
2018-09-30T14:41:27.653Z,16.59
2018-09-30T14:43:55.826Z,16.56
2018-09-30T14:46:24.183Z,16.50
2018-09-30T14:48:52.324Z,16.45
2018-09-30T14:51:21.085Z,16.36
2018-09-30T14:53:49.853Z,16.21
2018-09-30T14:56:18.104Z,16.32
2018-09-30T14:58:46.343Z,16.47
2018-09-30T15:01:14.562Z,16.43
2018-09-30T15:03:42.797Z,16.23
2018-09-30T15:06:11.201Z,16.05
2018-09-30T15:08:39.298Z,16.18
2018-09-30T15:11:07.565Z,16.08
2018-09-30T15:13:35.856Z,16.29
2018-09-30T15:16:04.095Z,16.14
2018-09-30T15:18:32.397Z,16.15
2018-09-30T15:21:00.669Z,16.16
2018-09-30T15:23:28.847Z,16.05
2018-09-30T15:25:57.179Z,15.95
2018-09-30T15:28:25.473Z,15.85
2018-09-30T15:30:53.690Z,15.84
2018-09-30T15:33:21.865Z,15.76
2018-09-30T15:35:50.057Z,15.86
2018-09-30T15:38:18.200Z,15.75
2018-09-30T15:40:46.565Z,15.54
2018-09-30T15:43:21.615Z,15.66
2018-09-30T15:45:50.306Z,15.64
2018-09-30T15:48:18.446Z,15.76
2018-09-30T15:50:46.660Z,15.57
2018-09-30T15:53:14.795Z,15.54
2018-09-30T15:55:43.016Z,15.33
2018-09-30T15:58:11.514Z,15.31
2018-09-30T16:00:39.704Z,15.38
2018-09-30T16:03:07.968Z,15.27
2018-09-30T16:05:36.222Z,15.47
2018-09-30T16:08:04.381Z,15.48
2018-09-30T16:10:32.926Z,15.44
2018-09-30T16:13:01.181Z,15.39
2018-09-30T16:15:29.361Z,15.14
2018-09-30T16:17:57.968Z,15.02
2018-09-30T16:20:26.300Z,14.86
2018-09-30T16:22:54.603Z,14.81
2018-09-30T16:25:22.974Z,14.86
2018-09-30T16:27:51.182Z,14.91
2018-09-30T16:30:20.059Z,14.74
2018-09-30T16:32:48.483Z,14.59
2018-09-30T16:35:16.765Z,14.55
2018-09-30T16:37:45.018Z,14.37
2018-09-30T16:40:15.225Z,14.47
2018-09-30T16:42:43.422Z,14.65
2018-09-30T16:45:14.199Z,14.77
2018-09-30T16:47:42.537Z,14.71
2018-09-30T16:50:10.721Z,14.59
2018-09-30T16:52:38.966Z,14.62
2018-09-30T16:55:07.159Z,14.31
2018-09-30T16:57:36.001Z,14.07
2018-09-30T17:00:04.298Z,13.89
2018-09-30T17:02:33.136Z,13.74
2018-09-30T17:05:01.407Z,13.79
2018-09-30T17:07:29.605Z,14.11
2018-09-30T17:09:57.756Z,14.07
2018-09-30T17:12:26.452Z,14.03
2018-09-30T17:14:54.606Z,13.88
2018-09-30T17:17:22.886Z,13.79
2018-09-30T17:19:51.263Z,13.86
2018-09-30T17:24:57.305Z,13.78
2018-09-30T17:27:26.377Z,13.61
2018-09-30T17:29:54.702Z,13.43
2018-09-30T17:32:22.987Z,13.50
2018-09-30T17:34:51.229Z,13.45
2018-09-30T17:37:19.498Z,13.37
2018-09-30T17:39:47.903Z,13.26
2018-09-30T17:42:16.144Z,13.11
2018-09-30T17:44:44.399Z,12.97
2018-09-30T17:47:12.627Z,12.89
2018-09-30T17:49:41.768Z,12.88
2018-09-30T17:52:10.149Z,12.77
2018-09-30T17:54:38.437Z,12.80
2018-09-30T17:57:06.824Z,12.76
2018-09-30T17:59:35.318Z,12.67
2018-09-30T18:02:03.626Z,12.60
2018-09-30T18:04:31.899Z,12.45
2018-09-30T18:07:00.402Z,12.46
2018-09-30T18:09:28.789Z,12.45
2018-09-30T18:11:57.053Z,12.45
2018-09-30T18:14:25.585Z,12.38
2018-09-30T18:16:54.054Z,12.39
2018-09-30T18:19:22.381Z,12.38
2018-09-30T18:21:50.841Z,12.31
2018-09-30T18:24:19.319Z,12.20
2018-09-30T18:26:47.549Z,12.19
2018-09-30T18:29:17.189Z,12.03
2018-09-30T18:31:45.792Z,11.85
2018-09-30T18:34:14.111Z,11.90
2018-09-30T18:36:42.429Z,11.84
2018-09-30T18:39:12.017Z,11.86
2018-09-30T18:41:41.175Z,11.72
2018-09-30T18:44:09.680Z,11.74
2018-09-30T18:46:38.177Z,11.60
2018-09-30T18:49:06.511Z,11.66
2018-09-30T18:51:35.003Z,11.54
2018-09-30T18:54:04.132Z,11.49
2018-09-30T18:56:32.777Z,11.47
2018-09-30T18:59:01.789Z,11.46
2018-09-30T19:01:30.328Z,11.38
2018-09-30T19:03:58.665Z,11.40
2018-09-30T19:06:27.072Z,11.41
2018-09-30T19:08:55.494Z,11.44
2018-09-30T19:11:25.653Z,11.41
2018-09-30T19:13:54.744Z,11.29
2018-09-30T19:16:23.203Z,11.13
2018-09-30T19:18:57.982Z,10.99
2018-09-30T19:21:26.529Z,11.06
2018-09-30T19:23:55.001Z,10.86
2018-09-30T19:26:23.502Z,10.90
2018-09-30T19:28:52.707Z,10.82
2018-09-30T19:31:21.321Z,10.75
2018-09-30T19:33:49.661Z,10.80
2018-09-30T19:36:18.724Z,10.72
2018-09-30T19:38:47.091Z,10.56
2018-09-30T19:41:15.380Z,10.57
2018-09-30T19:43:43.696Z,10.51
2018-09-30T19:46:12.124Z,10.49
2018-09-30T19:48:40.611Z,10.31
2018-09-30T19:51:09.094Z,10.16
2018-09-30T19:53:37.604Z,10.12
2018-09-30T19:56:05.908Z,10.10
2018-09-30T19:58:34.172Z,10.14
2018-09-30T20:01:02.472Z,10.10
2018-09-30T20:03:30.759Z,9.89
2018-09-30T20:05:59.692Z,9.85
2018-09-30T20:08:28.780Z,9.79
2018-09-30T20:10:57.111Z,9.82
2018-09-30T20:13:25.738Z,9.74
2018-09-30T20:15:54.258Z,9.71
2018-09-30T20:18:22.585Z,9.76
2018-09-30T20:20:50.865Z,9.76
2018-09-30T20:23:19.149Z,9.69
2018-09-30T20:25:47.575Z,9.62
2018-09-30T20:28:15.944Z,9.39
2018-09-30T20:30:44.358Z,9.50
2018-09-30T20:33:12.624Z,9.52
2018-09-30T20:35:40.810Z,9.47
2018-09-30T20:38:16.011Z,9.54
2018-09-30T20:40:45.249Z,9.42
2018-09-30T20:43:13.485Z,9.44
2018-09-30T20:45:41.672Z,9.57
2018-09-30T20:48:10.212Z,9.55
2018-09-30T20:50:38.844Z,9.74
2018-09-30T20:53:07.451Z,9.73
2018-09-30T20:55:36.000Z,9.60
2018-09-30T20:58:04.543Z,9.59
2018-09-30T21:00:32.906Z,9.46
2018-09-30T21:03:01.172Z,9.27
2018-09-30T21:06:39.996Z,9.17
2018-09-30T21:09:10.396Z,9.08
2018-09-30T21:11:39.106Z,9.04
2018-09-30T21:14:07.348Z,9.01
2018-09-30T21:16:35.728Z,9.01
2018-09-30T21:19:03.900Z,9.03
2018-09-30T21:21:32.093Z,8.97
2018-09-30T21:24:00.405Z,8.95
2018-09-30T21:26:35.373Z,8.80
2018-09-30T21:29:03.568Z,8.73
2018-09-30T21:31:32.844Z,8.75
2018-09-30T21:34:02.701Z,8.55
2018-09-30T21:36:31.280Z,8.51
2018-09-30T21:39:01.813Z,8.68
2018-09-30T21:41:30.050Z,8.63
2018-09-30T21:44:01.502Z,8.52
2018-09-30T21:46:29.804Z,8.59
2018-09-30T21:48:57.974Z,8.60
2018-09-30T21:51:26.332Z,8.53
2018-09-30T21:53:54.580Z,8.38
2018-09-30T21:56:23.820Z,8.34
2018-09-30T21:58:52.073Z,8.30
2018-09-30T22:01:20.273Z,8.23
2018-09-30T22:03:48.550Z,8.25
2018-09-30T22:06:16.879Z,8.21
2018-09-30T22:08:45.050Z,8.21
2018-09-30T22:11:13.174Z,8.35
2018-09-30T22:13:45.965Z,8.29
2018-09-30T22:16:14.408Z,8.15
2018-09-30T22:18:42.580Z,8.14
2018-09-30T22:21:10.790Z,8.19
2018-09-30T22:23:39.602Z,7.99
2018-09-30T22:26:07.791Z,7.93
2018-09-30T22:28:35.985Z,7.97
2018-09-30T22:31:04.246Z,7.94
2018-09-30T22:33:32.403Z,8.01
2018-09-30T22:36:00.624Z,7.91
2018-09-30T22:38:28.870Z,7.90
2018-09-30T22:40:57.374Z,7.87
2018-09-30T22:43:25.624Z,7.89
2018-09-30T22:45:53.764Z,7.87
2018-09-30T22:48:22.208Z,7.80
2018-09-30T22:50:50.355Z,7.69
2018-09-30T22:53:19.014Z,7.62
2018-09-30T22:55:47.226Z,7.70
2018-09-30T22:58:15.405Z,7.69
2018-09-30T23:00:43.635Z,7.84
2018-09-30T23:03:11.849Z,7.60
2018-09-30T23:05:40.010Z,7.51
2018-09-30T23:08:08.149Z,7.30
2018-09-30T23:10:36.281Z,7.41
2018-09-30T23:13:04.478Z,7.43
2018-09-30T23:15:32.684Z,7.56
2018-09-30T23:18:00.800Z,7.58
2018-09-30T23:20:28.952Z,7.65
2018-09-30T23:22:57.099Z,7.77
2018-09-30T23:25:25.351Z,7.73
2018-09-30T23:27:53.572Z,7.98
2018-09-30T23:30:21.743Z,8.02
2018-09-30T23:32:49.876Z,7.89
2018-09-30T23:35:18.131Z,8.06
2018-09-30T23:37:46.909Z,8.08
2018-09-30T23:40:15.088Z,8.10
2018-09-30T23:42:43.289Z,8.17
2018-09-30T23:45:11.514Z,8.15
2018-09-30T23:47:39.709Z,8.22
2018-09-30T23:50:07.883Z,8.33
2018-09-30T23:52:36.135Z,8.47
2018-09-30T23:55:04.518Z,8.57
2018-09-30T23:57:32.707Z,8.66
